createdAt,value
2023-03-05T00:00:23.654Z,7.18
2023-03-05T00:02:53.303Z,5.63
2023-03-05T00:05:22.879Z,6.00
2023-03-05T00:07:52.563Z,6.30
2023-03-05T00:10:22.307Z,7.38
2023-03-05T00:12:51.944Z,7.10
2023-03-05T00:15:21.689Z,6.38
2023-03-05T00:17:51.387Z,6.30
2023-03-05T00:20:21.112Z,6.13
2023-03-05T00:22:50.773Z,7.05
2023-03-05T00:25:20.635Z,6.65
2023-03-05T00:27:50.160Z,6.40
2023-03-05T00:30:19.748Z,6.65
2023-03-05T00:32:49.328Z,6.47
2023-03-05T00:35:18.972Z,6.07
2023-03-05T00:37:48.606Z,7.05
2023-03-05T00:40:18.654Z,6.22
2023-03-05T00:42:48.396Z,6.40
2023-03-05T00:45:18.046Z,6.50
2023-03-05T00:47:48.044Z,6.50
2023-03-05T00:50:17.740Z,6.07
2023-03-05T00:52:47.399Z,5.68
2023-03-05T00:55:17.115Z,5.70
2023-03-05T00:57:46.970Z,5.38
2023-03-05T01:00:17.651Z,6.40
2023-03-05T01:02:47.262Z,5.85
2023-03-05T01:05:17.534Z,6.57
2023-03-05T01:07:47.230Z,8.40
2023-03-05T01:10:16.827Z,6.38
2023-03-05T01:12:46.370Z,7.13
2023-03-05T01:15:16.090Z,7.57
2023-03-05T01:17:45.658Z,7.28
2023-03-05T01:20:16.926Z,7.38
2023-03-05T01:22:46.620Z,7.22
2023-03-05T01:25:17.609Z,7.57
2023-03-05T01:27:47.336Z,7.50
2023-03-05T01:30:18.024Z,6.80
2023-03-05T01:32:47.676Z,8.02
2023-03-05T01:35:23.205Z,8.02
2023-03-05T01:37:53.658Z,7.88
2023-03-05T01:40:28.868Z,9.60
2023-03-05T01:43:24.528Z,7.95
2023-03-05T01:46:18.210Z,8.65
2023-03-05T01:48:52.906Z,8.35
2023-03-05T01:51:25.867Z,8.82
2023-03-05T01:53:59.606Z,8.93
2023-03-05T01:56:31.211Z,8.75
2023-03-05T01:59:06.659Z,8.52
2023-03-05T02:01:42.839Z,8.20
2023-03-05T02:04:16.898Z,8.38
2023-03-05T02:06:48.813Z,9.65
2023-03-05T02:09:18.495Z,8.43
2023-03-05T02:11:48.352Z,8.50
2023-03-05T02:14:18.076Z,8.30
2023-03-05T02:16:48.065Z,8.15
2023-03-05T02:19:17.888Z,7.90
2023-03-05T02:21:50.230Z,8.15
2023-03-05T02:24:35.525Z,7.50
2023-03-05T02:27:06.965Z,8.13
2023-03-05T02:29:39.839Z,7.60
2023-03-05T02:32:11.019Z,7.60
2023-03-05T02:34:40.894Z,7.25
2023-03-05T02:37:11.787Z,7.07
2023-03-05T02:39:41.580Z,7.30
2023-03-05T02:42:11.665Z,6.93
2023-03-05T02:44:41.450Z,7.93
2023-03-05T02:47:11.057Z,8.00
2023-03-05T02:49:40.618Z,7.40
2023-03-05T02:52:10.639Z,8.40
2023-03-05T02:54:40.205Z,8.00
2023-03-05T02:57:09.826Z,8.07
2023-03-05T02:59:39.626Z,8.52
2023-03-05T03:02:09.259Z,8.75
2023-03-05T03:04:38.889Z,9.18
2023-03-05T03:07:08.667Z,9.23
2023-03-05T03:09:38.237Z,8.13
2023-03-05T03:12:10.430Z,9.43
2023-03-05T03:14:42.951Z,9.23
2023-03-05T03:17:15.707Z,8.80
2023-03-05T03:19:46.567Z,9.88
2023-03-05T03:22:17.805Z,9.25
2023-03-05T03:24:47.412Z,9.68
2023-03-05T03:27:16.945Z,9.52
2023-03-05T03:29:46.637Z,8.07
2023-03-05T03:32:16.350Z,9.88
2023-03-05T03:34:46.286Z,9.93
2023-03-05T03:37:16.615Z,10.25
2023-03-05T03:39:46.222Z,8.70
2023-03-05T03:42:18.550Z,10.95
2023-03-05T03:44:48.336Z,8.60
2023-03-05T03:47:18.178Z,10.30
2023-03-05T03:49:48.081Z,10.20
2023-03-05T03:52:17.904Z,11.70
2023-03-05T03:54:47.530Z,10.57
2023-03-05T03:57:17.204Z,10.15
2023-03-05T03:59:47.600Z,12.07
2023-03-05T04:02:17.302Z,10.48
2023-03-05T04:04:47.094Z,9.98
2023-03-05T04:07:16.841Z,9.70
2023-03-05T04:09:47.007Z,10.43
2023-03-05T04:12:19.724Z,10.70
2023-03-05T04:14:50.857Z,11.75
2023-03-05T04:17:20.446Z,12.35
2023-03-05T04:19:50.022Z,10.95
2023-03-05T04:22:20.598Z,10.52
2023-03-05T04:24:50.176Z,9.85
2023-03-05T04:27:19.855Z,11.02
2023-03-05T04:29:49.672Z,11.60
2023-03-05T04:32:24.603Z,10.90
2023-03-05T04:34:54.286Z,11.68
2023-03-05T04:37:23.864Z,11.82
2023-03-05T04:39:53.878Z,12.77
2023-03-05T04:42:23.590Z,11.85
2023-03-05T04:44:53.846Z,12.85
2023-03-05T04:47:23.496Z,11.82
2023-03-05T04:49:53.260Z,11.00
2023-03-05T04:52:22.862Z,11.35
2023-03-05T04:54:52.935Z,11.55
2023-03-05T04:57:24.058Z,12.40
2023-03-05T04:59:54.024Z,11.57
2023-03-05T05:02:23.579Z,10.70
2023-03-05T05:04:57.205Z,11.50
2023-03-05T05:07:27.249Z,12.30
2023-03-05T05:09:56.814Z,10.95
2023-03-05T05:12:26.499Z,11.15
2023-03-05T05:14:58.968Z,11.73
2023-03-05T05:17:31.758Z,11.07
2023-03-05T05:20:02.550Z,10.88
2023-03-05T05:22:32.148Z,10.63
2023-03-05T05:25:02.028Z,11.50
2023-03-05T05:27:31.654Z,10.55
2023-03-05T05:30:01.351Z,10.43
2023-03-05T05:32:31.092Z,10.75
2023-03-05T05:35:01.482Z,11.43
2023-03-05T05:37:32.449Z,10.77
2023-03-05T05:40:02.242Z,10.30
2023-03-05T05:42:31.843Z,10.77
2023-03-05T05:45:01.519Z,11.85
2023-03-05T05:47:32.315Z,10.75
2023-03-05T05:50:01.947Z,10.65
2023-03-05T05:52:31.546Z,10.90
2023-03-05T05:55:01.480Z,10.65
2023-03-05T05:57:31.114Z,10.35
2023-03-05T06:00:00.754Z,9.65
2023-03-05T06:02:30.491Z,10.07
2023-03-05T06:05:00.091Z,10.02
2023-03-05T06:07:29.666Z,9.30
2023-03-05T06:09:59.793Z,9.98
2023-03-05T06:12:29.517Z,9.30
2023-03-05T06:15:00.124Z,8.95
2023-03-05T06:17:31.362Z,7.93
2023-03-05T06:20:02.646Z,8.27
2023-03-05T06:22:32.386Z,8.32
2023-03-05T06:25:02.018Z,8.23
2023-03-05T06:27:31.640Z,8.05
2023-03-05T06:30:01.287Z,8.13
2023-03-05T06:32:30.976Z,6.93
2023-03-05T06:35:00.572Z,7.80
2023-03-05T06:37:30.134Z,7.25
2023-03-05T06:39:59.785Z,8.25
2023-03-05T06:42:29.362Z,7.55
2023-03-05T06:44:59.077Z,8.30
2023-03-05T06:47:28.787Z,8.27
2023-03-05T06:49:58.492Z,7.55
2023-03-05T06:52:28.118Z,7.82
2023-03-05T06:54:57.893Z,7.85
2023-03-05T06:57:27.596Z,8.18
2023-03-05T06:59:57.375Z,8.77
2023-03-05T07:02:27.249Z,8.77
2023-03-05T07:04:57.003Z,7.95
2023-03-05T07:07:26.553Z,7.95
2023-03-05T07:09:56.215Z,8.55
2023-03-05T07:12:25.912Z,7.45
2023-03-05T07:14:55.565Z,7.82
2023-03-05T07:17:25.130Z,8.43
2023-03-05T07:19:54.985Z,8.20
2023-03-05T07:22:24.596Z,7.65
2023-03-05T07:24:54.155Z,8.20
2023-03-05T07:27:27.193Z,8.50
2023-03-05T07:29:56.769Z,7.65
2023-03-05T07:32:26.781Z,7.40
2023-03-05T07:34:56.464Z,8.20
2023-03-05T07:37:26.036Z,7.88
2023-03-05T07:39:55.817Z,7.57
2023-03-05T07:42:25.443Z,8.38
2023-03-05T07:44:55.069Z,8.00
2023-03-05T07:47:24.988Z,7.60
2023-03-05T07:49:54.660Z,8.40
2023-03-05T07:52:24.328Z,9.07
2023-03-05T07:54:53.998Z,8.38
2023-03-05T07:57:23.620Z,8.80
2023-03-05T07:59:53.266Z,8.48
2023-03-05T08:02:23.265Z,8.10
2023-03-05T08:04:52.868Z,8.82
2023-03-05T08:07:22.515Z,9.43
2023-03-05T08:09:52.166Z,8.93
2023-03-05T08:12:21.702Z,8.40
2023-03-05T08:14:52.969Z,8.10
2023-03-05T08:17:22.512Z,8.57
2023-03-05T08:19:52.076Z,8.85
2023-03-05T08:22:22.221Z,8.75
2023-03-05T08:24:53.566Z,9.32
2023-03-05T08:27:23.165Z,8.93
2023-03-05T08:29:52.735Z,8.30
2023-03-05T08:32:22.387Z,8.13
2023-03-05T08:34:52.165Z,8.23
2023-03-05T08:37:21.844Z,8.73
2023-03-05T08:39:51.388Z,8.18
2023-03-05T08:42:21.374Z,7.28
2023-03-05T08:44:51.024Z,8.23
2023-03-05T08:47:21.970Z,8.07
2023-03-05T08:49:51.716Z,7.88
2023-03-05T08:52:21.240Z,8.30
2023-03-05T08:54:51.868Z,7.30
2023-03-05T08:57:21.609Z,8.30
2023-03-05T08:59:51.256Z,7.68
2023-03-05T09:02:20.935Z,7.72
2023-03-05T09:04:50.546Z,7.60
2023-03-05T09:07:20.111Z,7.47
2023-03-05T09:09:49.750Z,7.22
2023-03-05T09:12:19.353Z,6.60
2023-03-05T09:14:49.195Z,7.18
2023-03-05T09:17:18.817Z,7.00
2023-03-05T09:19:48.441Z,6.43
2023-03-05T09:22:18.139Z,6.93
2023-03-05T09:24:48.092Z,6.63
2023-03-05T09:27:17.718Z,6.45
2023-03-05T09:29:47.326Z,6.15
2023-03-05T09:32:17.000Z,6.10
2023-03-05T09:34:46.651Z,6.70
2023-03-05T09:37:16.305Z,6.32
2023-03-05T09:39:45.914Z,6.32
2023-03-05T09:42:39.621Z,6.57
2023-03-05T09:47:50.195Z,6.40
2023-03-05T09:50:34.575Z,5.93
2023-03-05T09:53:57.717Z,6.45
2023-03-05T09:56:34.158Z,6.47
2023-03-05T09:59:15.589Z,5.95
2023-03-05T10:01:47.138Z,6.10
2023-03-05T10:04:21.122Z,6.00
2023-03-05T10:07:21.425Z,6.28
2023-03-05T10:10:23.154Z,5.80
2023-03-05T10:12:56.232Z,6.60
2023-03-05T10:15:53.574Z,6.10
2023-03-05T10:18:53.750Z,6.25
2023-03-05T10:22:13.901Z,6.68
2023-03-05T10:25:17.396Z,5.93
2023-03-05T10:28:21.593Z,6.15
2023-03-05T10:30:57.382Z,6.15
2023-03-05T10:33:41.187Z,5.88
2023-03-05T10:36:56.707Z,6.03
2023-03-05T10:39:54.288Z,5.63
2023-03-05T10:42:30.133Z,5.90
2023-03-05T10:45:03.282Z,6.10
2023-03-05T10:47:58.031Z,5.63
2023-03-05T10:50:34.032Z,5.85
2023-03-05T10:53:39.758Z,5.72
2023-03-05T10:56:09.397Z,5.35
2023-03-05T10:58:39.129Z,6.15
2023-03-05T11:01:23.715Z,5.43
2023-03-05T11:04:27.040Z,5.60
2023-03-05T11:06:56.665Z,4.80
2023-03-05T11:09:31.273Z,5.47
2023-03-05T11:12:12.334Z,5.95
2023-03-05T11:14:49.159Z,5.43
2023-03-05T11:17:41.448Z,5.00
2023-03-05T11:20:33.504Z,5.43
2023-03-05T11:23:09.351Z,5.10
2023-03-05T11:25:55.750Z,5.20
2023-03-05T11:28:54.199Z,5.40
2023-03-05T11:31:27.526Z,5.35
2023-03-05T11:34:07.853Z,5.35
2023-03-05T11:36:42.403Z,5.07
2023-03-05T11:39:20.013Z,4.97
2023-03-05T11:41:58.354Z,4.85
2023-03-05T11:44:49.637Z,5.10
2023-03-05T11:47:34.637Z,4.57
2023-03-05T11:50:14.391Z,5.03
2023-03-05T11:52:52.142Z,4.40
2023-03-05T11:55:51.089Z,5.00
2023-03-05T11:58:38.725Z,4.63
2023-03-05T12:01:19.530Z,4.50
2023-03-05T12:03:50.228Z,5.13
2023-03-05T12:06:37.079Z,4.97
2023-03-05T12:09:18.528Z,5.22
2023-03-05T12:11:51.403Z,4.78
2023-03-05T12:14:28.438Z,5.32
2023-03-05T12:17:21.152Z,5.00
2023-03-05T12:20:29.339Z,4.22
2023-03-05T12:23:03.081Z,4.70
2023-03-05T12:25:52.290Z,4.20
2023-03-05T12:28:33.774Z,4.57
2023-03-05T12:31:12.410Z,3.90
2023-03-05T12:33:44.234Z,4.70
2023-03-05T12:36:26.072Z,4.15
2023-03-05T12:38:59.712Z,4.13
2023-03-05T12:41:33.105Z,4.28
2023-03-05T12:44:09.159Z,4.20
2023-03-05T12:46:45.905Z,4.25
2023-03-05T12:49:25.014Z,3.95
2023-03-05T12:51:56.853Z,4.07
2023-03-05T12:54:44.136Z,4.20
2023-03-05T12:57:31.028Z,3.78
2023-03-05T13:00:35.232Z,3.58
2023-03-05T13:03:11.450Z,3.20
2023-03-05T13:05:49.858Z,2.55
2023-03-05T13:08:26.048Z,2.38
2023-03-05T13:11:05.005Z,2.65
2023-03-05T13:13:45.787Z,2.28
2023-03-05T13:16:30.735Z,2.15
2023-03-05T13:19:04.375Z,1.80
2023-03-05T13:21:37.004Z,1.50
2023-03-05T13:24:06.869Z,1.52
2023-03-05T13:26:43.610Z,1.75
2023-03-05T13:29:21.818Z,1.73
2023-03-05T13:31:57.930Z,1.33
2023-03-05T13:34:44.662Z,1.30
2023-03-05T13:37:25.893Z,1.10
2023-03-05T13:40:08.573Z,1.10
2023-03-05T13:42:40.281Z,1.40
2023-03-05T13:45:33.420Z,1.00
2023-03-05T13:48:05.601Z,1.27
2023-03-05T13:50:36.525Z,0.90
2023-03-05T13:53:20.860Z,0.80
2023-03-05T13:55:51.958Z,0.90
2023-03-05T13:58:45.897Z,1.10
2023-03-05T14:01:21.413Z,0.70
2023-03-05T14:03:57.767Z,0.77
2023-03-05T14:06:32.370Z,0.82
2023-03-05T14:09:26.070Z,0.60
2023-03-05T14:12:07.543Z,0.68
2023-03-05T14:14:40.086Z,0.98
2023-03-05T14:17:31.642Z,0.30
2023-03-05T14:20:16.742Z,0.60
2023-03-05T14:22:50.060Z,0.57
2023-03-05T14:28:10.625Z,0.40
2023-03-05T14:30:40.276Z,0.22
2023-03-05T14:33:09.921Z,0.40
2023-03-05T14:35:39.613Z,0.40
2023-03-05T14:38:12.686Z,0.57
2023-03-05T14:40:42.282Z,0.60
2023-03-05T14:43:13.561Z,0.35
2023-03-05T14:45:45.741Z,0.43
2023-03-05T14:48:18.306Z,0.30
2023-03-05T14:50:56.632Z,0.40
2023-03-05T14:53:47.601Z,0.50
2023-03-05T14:56:29.870Z,0.80
2023-03-05T14:58:59.564Z,0.25
2023-03-05T15:01:29.217Z,0.30
2023-03-05T15:03:58.985Z,0.30
2023-03-05T15:06:36.399Z,0.40
2023-03-05T15:09:07.733Z,0.30
2023-03-05T15:11:37.402Z,0.45
2023-03-05T15:14:06.944Z,0.40
2023-03-05T15:16:36.723Z,0.50
2023-03-05T15:19:06.360Z,0.30
2023-03-05T15:21:37.174Z,0.30
2023-03-05T15:24:07.516Z,0.40
2023-03-05T15:26:38.666Z,0.20
2023-03-05T15:29:08.387Z,0.25
2023-03-05T15:31:40.032Z,0.17
2023-03-05T15:34:09.944Z,0.38
2023-03-05T15:36:39.590Z,0.22
2023-03-05T15:39:09.217Z,0.30
2023-03-05T15:41:38.936Z,0.38
2023-03-05T15:44:08.680Z,0.20
2023-03-05T15:46:38.421Z,0.30
2023-03-05T15:49:08.149Z,0.22
2023-03-05T15:51:37.760Z,0.30
2023-03-05T15:54:07.809Z,0.50
2023-03-05T15:56:37.469Z,0.20
2023-03-05T15:59:07.529Z,0.47
2023-03-05T16:01:37.151Z,0.30
2023-03-05T16:04:07.809Z,0.40
2023-03-05T16:06:37.626Z,0.40
2023-03-05T16:09:08.120Z,0.40
2023-03-05T16:11:41.982Z,0.40
2023-03-05T16:14:12.730Z,0.30
2023-03-05T16:16:42.703Z,0.30
2023-03-05T16:19:14.550Z,0.20
2023-03-05T16:21:44.683Z,0.30
2023-03-05T16:24:15.187Z,0.30
2023-03-05T16:26:45.038Z,0.30
2023-03-05T16:29:14.712Z,0.30
2023-03-05T16:31:46.000Z,0.30
2023-03-05T16:34:17.679Z,0.20
2023-03-05T16:36:54.266Z,0.38
2023-03-05T16:39:24.523Z,0.73
2023-03-05T16:41:54.322Z,0.20
2023-03-05T16:44:23.926Z,0.30
2023-03-05T16:46:55.332Z,0.30
2023-03-05T16:49:25.622Z,0.30
2023-03-05T16:51:56.596Z,0.25
2023-03-05T16:54:26.220Z,0.28
2023-03-05T16:56:55.955Z,0.20
2023-03-05T16:59:26.120Z,0.30
2023-03-05T17:01:55.831Z,0.30
2023-03-05T17:04:25.587Z,0.32
2023-03-05T17:06:57.134Z,0.40
2023-03-05T17:09:27.163Z,0.30
2023-03-05T17:11:57.243Z,0.30
2023-03-05T17:14:27.006Z,0.35
2023-03-05T17:16:56.671Z,0.20
2023-03-05T17:19:26.273Z,0.30
2023-03-05T17:21:55.925Z,0.30
2023-03-05T17:24:25.640Z,0.20
2023-03-05T17:26:55.349Z,0.25
2023-03-05T17:29:25.151Z,0.20
2023-03-05T17:31:55.002Z,0.40
2023-03-05T17:34:35.489Z,0.20
2023-03-05T17:37:07.630Z,0.40
2023-03-05T17:39:37.353Z,0.30
2023-03-05T17:42:07.053Z,0.30
2023-03-05T17:44:36.710Z,0.17
2023-03-05T17:47:06.462Z,0.30
2023-03-05T17:49:36.195Z,0.30
2023-03-05T17:52:05.892Z,0.20
2023-03-05T17:54:35.666Z,0.30
2023-03-05T17:57:06.186Z,0.30
2023-03-05T17:59:35.784Z,0.20
2023-03-05T18:02:05.299Z,0.30
2023-03-05T18:04:35.476Z,0.20
2023-03-05T18:07:05.772Z,0.30
2023-03-05T18:09:35.533Z,0.32
2023-03-05T18:12:05.113Z,0.20
2023-03-05T18:14:35.362Z,0.20
2023-03-05T18:17:05.014Z,0.25
2023-03-05T18:19:34.709Z,0.30
2023-03-05T18:22:04.532Z,0.22
2023-03-05T18:24:34.525Z,0.20
2023-03-05T18:27:04.171Z,0.20
2023-03-05T18:29:33.847Z,0.30
2023-03-05T18:32:03.586Z,0.40
2023-03-05T18:34:33.260Z,0.30
2023-03-05T18:37:02.896Z,0.30
2023-03-05T18:39:35.533Z,0.30
2023-03-05T18:42:05.203Z,0.40
2023-03-05T18:44:34.774Z,0.30
2023-03-05T18:47:04.382Z,0.30
2023-03-05T18:49:33.969Z,0.30
2023-03-05T18:52:04.733Z,0.28
2023-03-05T18:54:34.781Z,0.40
2023-03-05T18:57:04.453Z,0.35
2023-03-05T18:59:34.055Z,0.30
2023-03-05T19:02:03.655Z,0.40
2023-03-05T19:04:33.350Z,0.30
2023-03-05T19:07:03.048Z,0.25
2023-03-05T19:09:52.355Z,0.30
2023-03-05T19:12:32.757Z,0.30
2023-03-05T19:15:03.399Z,0.50
2023-03-05T19:17:34.450Z,0.50
2023-03-05T19:20:07.862Z,0.20
2023-03-05T19:25:07.913Z,0.30
2023-03-05T19:27:38.182Z,0.30
2023-03-05T19:30:09.530Z,0.28
2023-03-05T19:32:39.564Z,0.38
2023-03-05T19:35:10.866Z,0.30
2023-03-05T19:37:40.773Z,0.30
2023-03-05T19:40:11.191Z,0.38
2023-03-05T19:42:40.821Z,0.20
2023-03-05T19:45:11.241Z,0.20
2023-03-05T19:47:41.374Z,0.20
2023-03-05T19:50:11.571Z,0.40
2023-03-05T19:52:41.227Z,0.30
2023-03-05T19:55:11.545Z,0.30
2023-03-05T19:57:41.132Z,0.20
2023-03-05T20:00:11.453Z,0.20
2023-03-05T20:02:41.177Z,0.20
2023-03-05T20:05:11.187Z,0.45
2023-03-05T20:07:40.833Z,0.40
2023-03-05T20:10:10.959Z,0.50
2023-03-05T20:12:40.750Z,0.30
2023-03-05T20:15:10.918Z,0.20
2023-03-05T20:17:40.854Z,0.38
2023-03-05T20:20:11.273Z,0.43
2023-03-05T20:22:47.309Z,0.70
2023-03-05T20:25:22.671Z,0.40
2023-03-05T20:27:53.117Z,0.60
2023-03-05T20:30:22.939Z,0.63
2023-03-05T20:32:52.547Z,0.80
2023-03-05T20:35:22.282Z,0.82
2023-03-05T20:38:02.086Z,0.73
2023-03-05T20:40:31.688Z,1.17
2023-03-05T20:43:01.272Z,1.67
2023-03-05T20:45:30.879Z,1.83
2023-03-05T20:48:00.625Z,2.15
2023-03-05T20:50:30.264Z,1.80
2023-03-05T20:53:00.416Z,1.70
2023-03-05T20:55:30.626Z,1.70
2023-03-05T20:58:00.351Z,1.60
2023-03-05T21:00:30.231Z,1.73
2023-03-05T21:02:59.964Z,1.33
2023-03-05T21:05:34.191Z,1.33
2023-03-05T21:08:05.803Z,0.80
2023-03-05T21:10:35.893Z,1.05
2023-03-05T21:13:05.522Z,1.02
2023-03-05T21:15:35.213Z,0.98
2023-03-05T21:18:05.116Z,0.95
2023-03-05T21:20:35.069Z,0.55
2023-03-05T21:23:05.577Z,0.98
2023-03-05T21:25:35.729Z,0.68
2023-03-05T21:28:11.685Z,0.95
2023-03-05T21:30:45.061Z,0.68
2023-03-05T21:35:45.704Z,0.80
2023-03-05T21:38:16.110Z,0.85
2023-03-05T21:40:48.970Z,0.60
2023-03-05T21:43:21.764Z,0.75
2023-03-05T21:45:54.105Z,0.88
2023-03-05T21:48:24.816Z,0.57
2023-03-05T21:50:56.306Z,0.70
2023-03-05T21:53:26.705Z,0.70
2023-03-05T21:56:06.805Z,0.57
2023-03-05T21:58:37.174Z,0.50
2023-03-05T22:01:06.868Z,0.40
2023-03-05T22:03:36.478Z,0.40
2023-03-05T22:06:06.291Z,0.50
2023-03-05T22:08:35.822Z,0.40
2023-03-05T22:11:13.742Z,0.40
2023-03-05T22:13:43.500Z,0.50
2023-03-05T22:16:13.579Z,0.60
2023-03-05T22:18:43.299Z,0.40
2023-03-05T22:21:23.019Z,0.30
2023-03-05T22:23:52.658Z,0.40
2023-03-05T22:26:23.131Z,0.57
2023-03-05T22:28:53.094Z,0.40
2023-03-05T22:31:28.868Z,0.50
2023-03-05T22:33:58.995Z,0.50
2023-03-05T22:36:28.790Z,0.40
2023-03-05T22:38:58.745Z,0.55
2023-03-05T22:41:28.368Z,0.40
2023-03-05T22:43:57.960Z,0.60
2023-03-05T22:46:29.310Z,0.30
2023-03-05T22:48:59.161Z,0.43
2023-03-05T22:51:29.023Z,0.30
2023-03-05T22:53:58.731Z,0.40
2023-03-05T22:56:28.476Z,0.50
2023-03-05T22:58:58.067Z,0.28
2023-03-05T23:01:28.861Z,0.20
2023-03-05T23:04:06.981Z,0.32
2023-03-05T23:06:36.969Z,0.40
2023-03-05T23:09:06.664Z,0.40
2023-03-05T23:11:36.415Z,0.50
2023-03-05T23:14:06.102Z,0.60
2023-03-05T23:16:35.883Z,0.60
2023-03-05T23:19:05.451Z,0.70
2023-03-05T23:21:35.020Z,0.63
2023-03-05T23:24:04.621Z,0.77
2023-03-05T23:26:34.208Z,0.80
2023-03-05T23:29:03.863Z,0.68
2023-03-05T23:31:33.570Z,0.70
2023-03-05T23:34:03.149Z,0.75
2023-03-05T23:36:32.787Z,0.85
2023-03-05T23:39:02.400Z,0.60
2023-03-05T23:41:31.964Z,0.80
2023-03-05T23:44:01.575Z,0.70
2023-03-05T23:46:32.060Z,0.88
2023-03-05T23:49:01.691Z,0.90
2023-03-05T23:51:31.318Z,0.80
2023-03-05T23:54:00.884Z,0.80
2023-03-05T23:56:30.545Z,0.93
2023-03-05T23:59:02.159Z,0.80
